sensor_id;sensor_type;location;lat;lon;timestamp;P1;durP1;ratioP1;P2;durP2;ratioP2
2011;SDS011;1009;51.436;6.972;2023-07-30T00:02:18;4.57;;;2.80;;
2011;SDS011;1009;51.436;6.972;2023-07-30T00:04:45;4.80;;;2.97;;
2011;SDS011;1009;51.436;6.972;2023-07-30T00:07:12;3.20;;;2.20;;
2011;SDS011;1009;51.436;6.972;2023-07-30T00:09:41;4.67;;;2.70;;
2011;SDS011;1009;51.436;6.972;2023-07-30T00:12:08;5.47;;;2.60;;
2011;SDS011;1009;51.436;6.972;2023-07-30T00:14:35;3.27;;;2.40;;
2011;SDS011;1009;51.436;6.972;2023-07-30T00:17:02;3.50;;;3.00;;
2011;SDS011;1009;51.436;6.972;2023-07-30T00:19:29;5.70;;;2.23;;
2011;SDS011;1009;51.436;6.972;2023-07-30T00:21:56;4.00;;;2.47;;
2011;SDS011;1009;51.436;6.972;2023-07-30T00:24:23;6.13;;;2.87;;
2011;SDS011;1009;51.436;6.972;2023-07-30T00:26:51;5.87;;;2.30;;
2011;SDS011;1009;51.436;6.972;2023-07-30T00:29:17;8.57;;;2.30;;
2011;SDS011;1009;51.436;6.972;2023-07-30T00:31:44;4.43;;;2.13;;
2011;SDS011;1009;51.436;6.972;2023-07-30T00:34:11;4.40;;;2.70;;
2011;SDS011;1009;51.436;6.972;2023-07-30T00:36:38;4.73;;;2.60;;
2011;SDS011;1009;51.436;6.972;2023-07-30T00:39:05;3.97;;;2.30;;
2011;SDS011;1009;51.436;6.972;2023-07-30T00:41:31;4.80;;;2.53;;
2011;SDS011;1009;51.436;6.972;2023-07-30T00:44:00;6.80;;;2.70;;
2011;SDS011;1009;51.436;6.972;2023-07-30T00:46:26;2.80;;;1.70;;
2011;SDS011;1009;51.436;6.972;2023-07-30T00:48:53;3.30;;;1.83;;
2011;SDS011;1009;51.436;6.972;2023-07-30T00:51:20;5.17;;;2.70;;
2011;SDS011;1009;51.436;6.972;2023-07-30T00:53:47;4.83;;;2.10;;
2011;SDS011;1009;51.436;6.972;2023-07-30T00:56:14;3.57;;;2.43;;
2011;SDS011;1009;51.436;6.972;2023-07-30T00:58:42;4.70;;;2.30;;
2011;SDS011;1009;51.436;6.972;2023-07-30T01:01:12;4.07;;;2.10;;
2011;SDS011;1009;51.436;6.972;2023-07-30T01:03:39;4.37;;;2.73;;
2011;SDS011;1009;51.436;6.972;2023-07-30T01:06:08;3.53;;;2.27;;
2011;SDS011;1009;51.436;6.972;2023-07-30T01:08:34;5.43;;;2.10;;
2011;SDS011;1009;51.436;6.972;2023-07-30T01:11:02;4.30;;;2.33;;
2011;SDS011;1009;51.436;6.972;2023-07-30T01:13:30;3.63;;;2.03;;
2011;SDS011;1009;51.436;6.972;2023-07-30T01:15:59;4.93;;;3.07;;
2011;SDS011;1009;51.436;6.972;2023-07-30T01:18:27;3.27;;;2.23;;
2011;SDS011;1009;51.436;6.972;2023-07-30T01:20:58;4.50;;;2.77;;
2011;SDS011;1009;51.436;6.972;2023-07-30T01:23:25;7.13;;;2.80;;
2011;SDS011;1009;51.436;6.972;2023-07-30T01:25:53;6.97;;;2.10;;
2011;SDS011;1009;51.436;6.972;2023-07-30T01:28:28;3.30;;;2.03;;
2011;SDS011;1009;51.436;6.972;2023-07-30T01:30:57;5.00;;;2.60;;
2011;SDS011;1009;51.436;6.972;2023-07-30T01:33:28;6.33;;;2.70;;
2011;SDS011;1009;51.436;6.972;2023-07-30T01:35:55;3.97;;;2.70;;
2011;SDS011;1009;51.436;6.972;2023-07-30T01:38:25;2.97;;;2.40;;
2011;SDS011;1009;51.436;6.972;2023-07-30T01:40:52;5.43;;;2.47;;
2011;SDS011;1009;51.436;6.972;2023-07-30T01:43:19;4.67;;;3.20;;
2011;SDS011;1009;51.436;6.972;2023-07-30T01:45:46;3.70;;;2.73;;
2011;SDS011;1009;51.436;6.972;2023-07-30T01:48:13;4.50;;;2.47;;
2011;SDS011;1009;51.436;6.972;2023-07-30T01:50:40;5.07;;;2.43;;
2011;SDS011;1009;51.436;6.972;2023-07-30T01:53:09;4.27;;;2.60;;
2011;SDS011;1009;51.436;6.972;2023-07-30T01:55:36;5.90;;;2.20;;
2011;SDS011;1009;51.436;6.972;2023-07-30T01:58:04;3.50;;;2.67;;
2011;SDS011;1009;51.436;6.972;2023-07-30T02:00:31;4.53;;;2.60;;
2011;SDS011;1009;51.436;6.972;2023-07-30T02:02:57;3.03;;;2.27;;
2011;SDS011;1009;51.436;6.972;2023-07-30T02:05:24;3.43;;;2.30;;
2011;SDS011;1009;51.436;6.972;2023-07-30T02:07:51;6.03;;;2.97;;
2011;SDS011;1009;51.436;6.972;2023-07-30T02:10:19;7.73;;;2.30;;
2011;SDS011;1009;51.436;6.972;2023-07-30T02:12:46;6.80;;;3.07;;
2011;SDS011;1009;51.436;6.972;2023-07-30T02:15:13;5.83;;;2.80;;
2011;SDS011;1009;51.436;6.972;2023-07-30T02:17:39;6.07;;;2.50;;
2011;SDS011;1009;51.436;6.972;2023-07-30T02:20:07;5.87;;;2.60;;
2011;SDS011;1009;51.436;6.972;2023-07-30T02:22:35;4.97;;;2.50;;
2011;SDS011;1009;51.436;6.972;2023-07-30T02:25:01;3.70;;;2.10;;
2011;SDS011;1009;51.436;6.972;2023-07-30T02:27:30;2.40;;;1.80;;
2011;SDS011;1009;51.436;6.972;2023-07-30T02:29:57;3.30;;;2.40;;
2011;SDS011;1009;51.436;6.972;2023-07-30T02:32:26;4.27;;;1.80;;
2011;SDS011;1009;51.436;6.972;2023-07-30T02:34:54;4.27;;;2.70;;
2011;SDS011;1009;51.436;6.972;2023-07-30T02:37:20;4.97;;;1.80;;
2011;SDS011;1009;51.436;6.972;2023-07-30T02:39:47;4.23;;;2.23;;
2011;SDS011;1009;51.436;6.972;2023-07-30T02:42:14;9.33;;;2.67;;
2011;SDS011;1009;51.436;6.972;2023-07-30T02:44:42;4.57;;;2.40;;
2011;SDS011;1009;51.436;6.972;2023-07-30T02:47:09;5.00;;;3.10;;
2011;SDS011;1009;51.436;6.972;2023-07-30T02:49:35;6.93;;;2.27;;
2011;SDS011;1009;51.436;6.972;2023-07-30T02:52:02;3.40;;;2.20;;
2011;SDS011;1009;51.436;6.972;2023-07-30T02:54:29;5.70;;;2.47;;
2011;SDS011;1009;51.436;6.972;2023-07-30T02:56:56;3.33;;;1.90;;
2011;SDS011;1009;51.436;6.972;2023-07-30T02:59:23;4.23;;;2.50;;
2011;SDS011;1009;51.436;6.972;2023-07-30T03:01:51;2.57;;;2.10;;
2011;SDS011;1009;51.436;6.972;2023-07-30T03:04:18;9.73;;;3.13;;
2011;SDS011;1009;51.436;6.972;2023-07-30T03:06:45;5.53;;;2.43;;
2011;SDS011;1009;51.436;6.972;2023-07-30T03:09:12;12.03;;;2.30;;
2011;SDS011;1009;51.436;6.972;2023-07-30T03:11:38;5.60;;;2.70;;
2011;SDS011;1009;51.436;6.972;2023-07-30T03:14:05;6.60;;;2.13;;
2011;SDS011;1009;51.436;6.972;2023-07-30T03:16:32;10.67;;;2.20;;
2011;SDS011;1009;51.436;6.972;2023-07-30T03:19:00;9.00;;;2.63;;
2011;SDS011;1009;51.436;6.972;2023-07-30T03:21:27;3.33;;;2.30;;
2011;SDS011;1009;51.436;6.972;2023-07-30T03:23:53;5.23;;;2.70;;
2011;SDS011;1009;51.436;6.972;2023-07-30T03:26:20;9.90;;;3.20;;
2011;SDS011;1009;51.436;6.972;2023-07-30T03:28:47;5.27;;;3.00;;
2011;SDS011;1009;51.436;6.972;2023-07-30T03:31:14;4.07;;;2.60;;
2011;SDS011;1009;51.436;6.972;2023-07-30T03:33:40;4.30;;;2.70;;
2011;SDS011;1009;51.436;6.972;2023-07-30T03:36:10;3.40;;;2.43;;
2011;SDS011;1009;51.436;6.972;2023-07-30T03:38:37;9.80;;;2.60;;
2011;SDS011;1009;51.436;6.972;2023-07-30T03:41:04;2.63;;;2.00;;
2011;SDS011;1009;51.436;6.972;2023-07-30T03:43:34;3.60;;;2.00;;
2011;SDS011;1009;51.436;6.972;2023-07-30T03:46:01;4.47;;;2.20;;
2011;SDS011;1009;51.436;6.972;2023-07-30T03:48:28;5.97;;;2.43;;
2011;SDS011;1009;51.436;6.972;2023-07-30T03:50:55;4.33;;;2.30;;
2011;SDS011;1009;51.436;6.972;2023-07-30T03:53:23;4.53;;;2.20;;
2011;SDS011;1009;51.436;6.972;2023-07-30T03:55:50;9.40;;;2.33;;
2011;SDS011;1009;51.436;6.972;2023-07-30T03:58:16;4.60;;;1.93;;
2011;SDS011;1009;51.436;6.972;2023-07-30T04:00:43;4.10;;;2.73;;
2011;SDS011;1009;51.436;6.972;2023-07-30T04:03:09;6.47;;;2.30;;
2011;SDS011;1009;51.436;6.972;2023-07-30T04:05:36;5.07;;;2.50;;
2011;SDS011;1009;51.436;6.972;2023-07-30T04:08:03;4.90;;;2.40;;
2011;SDS011;1009;51.436;6.972;2023-07-30T04:10:31;5.17;;;2.60;;
2011;SDS011;1009;51.436;6.972;2023-07-30T04:12:59;5.60;;;2.50;;
2011;SDS011;1009;51.436;6.972;2023-07-30T04:15:26;10.53;;;2.47;;
2011;SDS011;1009;51.436;6.972;2023-07-30T04:17:53;8.13;;;2.73;;
2011;SDS011;1009;51.436;6.972;2023-07-30T04:20:20;5.03;;;2.80;;
2011;SDS011;1009;51.436;6.972;2023-07-30T04:22:46;9.10;;;2.47;;
2011;SDS011;1009;51.436;6.972;2023-07-30T04:25:13;8.43;;;2.50;;
2011;SDS011;1009;51.436;6.972;2023-07-30T04:27:41;7.20;;;2.07;;
2011;SDS011;1009;51.436;6.972;2023-07-30T04:30:08;5.63;;;2.40;;
2011;SDS011;1009;51.436;6.972;2023-07-30T04:32:36;6.13;;;2.90;;
2011;SDS011;1009;51.436;6.972;2023-07-30T04:35:03;6.77;;;2.70;;
2011;SDS011;1009;51.436;6.972;2023-07-30T04:37:30;3.97;;;2.50;;
2011;SDS011;1009;51.436;6.972;2023-07-30T04:39:56;9.47;;;2.70;;
2011;SDS011;1009;51.436;6.972;2023-07-30T04:42:23;6.03;;;2.20;;
2011;SDS011;1009;51.436;6.972;2023-07-30T04:44:51;6.93;;;2.67;;
2011;SDS011;1009;51.436;6.972;2023-07-30T04:47:18;3.53;;;2.40;;
2011;SDS011;1009;51.436;6.972;2023-07-30T04:49:45;7.83;;;2.30;;
2011;SDS011;1009;51.436;6.972;2023-07-30T04:52:11;4.87;;;2.43;;
2011;SDS011;1009;51.436;6.972;2023-07-30T04:54:38;5.83;;;2.47;;
2011;SDS011;1009;51.436;6.972;2023-07-30T04:57:05;7.33;;;2.10;;
2011;SDS011;1009;51.436;6.972;2023-07-30T04:59:32;4.57;;;3.00;;
2011;SDS011;1009;51.436;6.972;2023-07-30T05:02:01;4.00;;;2.93;;
2011;SDS011;1009;51.436;6.972;2023-07-30T05:04:27;5.13;;;2.83;;
2011;SDS011;1009;51.436;6.972;2023-07-30T05:06:54;6.83;;;2.50;;
2011;SDS011;1009;51.436;6.972;2023-07-30T05:09:21;3.90;;;2.23;;
2011;SDS011;1009;51.436;6.972;2023-07-30T05:11:48;4.97;;;2.97;;
2011;SDS011;1009;51.436;6.972;2023-07-30T05:14:14;5.00;;;2.73;;
2011;SDS011;1009;51.436;6.972;2023-07-30T05:16:41;4.57;;;2.53;;
2011;SDS011;1009;51.436;6.972;2023-07-30T05:19:10;8.13;;;2.40;;
2011;SDS011;1009;51.436;6.972;2023-07-30T05:21:37;10.10;;;3.80;;
2011;SDS011;1009;51.436;6.972;2023-07-30T05:24:04;6.90;;;3.97;;
2011;SDS011;1009;51.436;6.972;2023-07-30T05:26:30;8.33;;;2.70;;
2011;SDS011;1009;51.436;6.972;2023-07-30T05:28:57;8.57;;;3.17;;
2011;SDS011;1009;51.436;6.972;2023-07-30T05:31:24;6.90;;;2.40;;
2011;SDS011;1009;51.436;6.972;2023-07-30T05:33:51;6.03;;;2.90;;
2011;SDS011;1009;51.436;6.972;2023-07-30T05:36:19;6.50;;;3.10;;
2011;SDS011;1009;51.436;6.972;2023-07-30T05:38:46;6.10;;;2.60;;
2011;SDS011;1009;51.436;6.972;2023-07-30T05:41:13;5.53;;;2.13;;
2011;SDS011;1009;51.436;6.972;2023-07-30T05:43:40;5.53;;;2.63;;
2011;SDS011;1009;51.436;6.972;2023-07-30T05:46:07;5.27;;;2.50;;
2011;SDS011;1009;51.436;6.972;2023-07-30T05:48:34;3.40;;;2.00;;
2011;SDS011;1009;51.436;6.972;2023-07-30T05:51:01;5.73;;;2.43;;
2011;SDS011;1009;51.436;6.972;2023-07-30T05:53:29;5.33;;;2.40;;
2011;SDS011;1009;51.436;6.972;2023-07-30T05:55:56;4.00;;;2.03;;
2011;SDS011;1009;51.436;6.972;2023-07-30T05:58:23;7.00;;;2.43;;
2011;SDS011;1009;51.436;6.972;2023-07-30T06:00:50;6.50;;;2.70;;
2011;SDS011;1009;51.436;6.972;2023-07-30T06:03:16;4.13;;;1.87;;
2011;SDS011;1009;51.436;6.972;2023-07-30T06:05:44;2.70;;;2.00;;
2011;SDS011;1009;51.436;6.972;2023-07-30T06:08:11;4.77;;;2.20;;
2011;SDS011;1009;51.436;6.972;2023-07-30T06:10:39;8.37;;;2.53;;
2011;SDS011;1009;51.436;6.972;2023-07-30T06:13:06;4.33;;;2.67;;
2011;SDS011;1009;51.436;6.972;2023-07-30T06:15:33;2.87;;;2.37;;
2011;SDS011;1009;51.436;6.972;2023-07-30T06:18:00;7.70;;;2.57;;
2011;SDS011;1009;51.436;6.972;2023-07-30T06:20:27;7.07;;;2.27;;
2011;SDS011;1009;51.436;6.972;2023-07-30T06:22:54;4.73;;;2.07;;
2011;SDS011;1009;51.436;6.972;2023-07-30T06:25:21;8.87;;;2.67;;
2011;SDS011;1009;51.436;6.972;2023-07-30T06:27:49;4.50;;;1.90;;
2011;SDS011;1009;51.436;6.972;2023-07-30T06:30:16;7.97;;;2.10;;
2011;SDS011;1009;51.436;6.972;2023-07-30T06:32:43;9.27;;;2.47;;
2011;SDS011;1009;51.436;6.972;2023-07-30T06:35:10;7.67;;;2.23;;
2011;SDS011;1009;51.436;6.972;2023-07-30T06:37:36;11.33;;;1.80;;
2011;SDS011;1009;51.436;6.972;2023-07-30T06:40:04;7.30;;;2.10;;
2011;SDS011;1009;51.436;6.972;2023-07-30T06:42:32;2.87;;;1.70;;
2011;SDS011;1009;51.436;6.972;2023-07-30T06:45:00;6.97;;;1.50;;
2011;SDS011;1009;51.436;6.972;2023-07-30T06:47:27;1.97;;;1.30;;
2011;SDS011;1009;51.436;6.972;2023-07-30T06:49:54;4.40;;;1.10;;
2011;SDS011;1009;51.436;6.972;2023-07-30T06:52:20;4.50;;;2.13;;
2011;SDS011;1009;51.436;6.972;2023-07-30T06:54:47;7.27;;;2.03;;
2011;SDS011;1009;51.436;6.972;2023-07-30T06:57:14;3.43;;;1.20;;
2011;SDS011;1009;51.436;6.972;2023-07-30T06:59:41;5.90;;;1.83;;
2011;SDS011;1009;51.436;6.972;2023-07-30T07:02:09;5.73;;;2.10;;
2011;SDS011;1009;51.436;6.972;2023-07-30T07:04:36;1.97;;;1.37;;
2011;SDS011;1009;51.436;6.972;2023-07-30T07:07:03;7.60;;;1.50;;
2011;SDS011;1009;51.436;6.972;2023-07-30T07:09:30;2.83;;;1.23;;
2011;SDS011;1009;51.436;6.972;2023-07-30T07:11:57;5.70;;;2.20;;
2011;SDS011;1009;51.436;6.972;2023-07-30T07:14:24;2.53;;;1.60;;
2011;SDS011;1009;51.436;6.972;2023-07-30T07:16:51;5.27;;;1.77;;
2011;SDS011;1009;51.436;6.972;2023-07-30T07:19:21;7.20;;;1.97;;
2011;SDS011;1009;51.436;6.972;2023-07-30T07:21:48;3.93;;;1.60;;
2011;SDS011;1009;51.436;6.972;2023-07-30T07:24:15;2.73;;;1.47;;
2011;SDS011;1009;51.436;6.972;2023-07-30T07:26:42;10.03;;;2.60;;
2011;SDS011;1009;51.436;6.972;2023-07-30T07:29:10;7.37;;;1.93;;
2011;SDS011;1009;51.436;6.972;2023-07-30T07:31:36;5.93;;;2.53;;
2011;SDS011;1009;51.436;6.972;2023-07-30T07:34:03;5.10;;;1.90;;
2011;SDS011;1009;51.436;6.972;2023-07-30T07:36:31;7.50;;;2.93;;
2011;SDS011;1009;51.436;6.972;2023-07-30T07:39:00;3.97;;;1.70;;
2011;SDS011;1009;51.436;6.972;2023-07-30T07:41:27;3.40;;;2.40;;
2011;SDS011;1009;51.436;6.972;2023-07-30T07:43:54;4.90;;;2.50;;
2011;SDS011;1009;51.436;6.972;2023-07-30T07:46:21;8.07;;;2.80;;
2011;SDS011;1009;51.436;6.972;2023-07-30T07:48:48;3.77;;;1.90;;
2011;SDS011;1009;51.436;6.972;2023-07-30T07:51:15;6.23;;;2.13;;
2011;SDS011;1009;51.436;6.972;2023-07-30T07:53:43;8.30;;;2.13;;
2011;SDS011;1009;51.436;6.972;2023-07-30T07:56:09;6.73;;;2.17;;
2011;SDS011;1009;51.436;6.972;2023-07-30T07:58:36;4.10;;;2.20;;
2011;SDS011;1009;51.436;6.972;2023-07-30T08:01:03;6.27;;;2.20;;
2011;SDS011;1009;51.436;6.972;2023-07-30T08:03:30;12.73;;;3.53;;
2011;SDS011;1009;51.436;6.972;2023-07-30T08:05:57;6.30;;;1.97;;
2011;SDS011;1009;51.436;6.972;2023-07-30T08:08:24;10.27;;;2.83;;
2011;SDS011;1009;51.436;6.972;2023-07-30T08:10:52;4.50;;;2.10;;
2011;SDS011;1009;51.436;6.972;2023-07-30T08:13:19;6.43;;;2.33;;
2011;SDS011;1009;51.436;6.972;2023-07-30T08:15:46;7.47;;;2.40;;
2011;SDS011;1009;51.436;6.972;2023-07-30T08:18:13;6.47;;;2.30;;
2011;SDS011;1009;51.436;6.972;2023-07-30T08:20:40;6.30;;;2.70;;
2011;SDS011;1009;51.436;6.972;2023-07-30T08:23:07;7.87;;;2.67;;
2011;SDS011;1009;51.436;6.972;2023-07-30T08:25:34;4.33;;;2.60;;
2011;SDS011;1009;51.436;6.972;2023-07-30T08:28:02;4.67;;;2.57;;
2011;SDS011;1009;51.436;6.972;2023-07-30T08:30:29;9.10;;;3.50;;
2011;SDS011;1009;51.436;6.972;2023-07-30T08:32:56;6.57;;;2.40;;
2011;SDS011;1009;51.436;6.972;2023-07-30T08:35:22;11.93;;;3.17;;
2011;SDS011;1009;51.436;6.972;2023-07-30T08:37:49;5.27;;;2.40;;
2011;SDS011;1009;51.436;6.972;2023-07-30T08:40:20;5.70;;;2.63;;
2011;SDS011;1009;51.436;6.972;2023-07-30T08:42:48;13.73;;;2.70;;
2011;SDS011;1009;51.436;6.972;2023-07-30T08:45:17;7.00;;;2.80;;
2011;SDS011;1009;51.436;6.972;2023-07-30T08:47:44;7.70;;;2.70;;
2011;SDS011;1009;51.436;6.972;2023-07-30T08:50:11;7.73;;;3.30;;
2011;SDS011;1009;51.436;6.972;2023-07-30T08:52:38;13.93;;;3.30;;
2011;SDS011;1009;51.436;6.972;2023-07-30T08:55:05;9.63;;;2.50;;
2011;SDS011;1009;51.436;6.972;2023-07-30T08:57:33;7.60;;;2.70;;
2011;SDS011;1009;51.436;6.972;2023-07-30T09:00:00;4.83;;;2.80;;
2011;SDS011;1009;51.436;6.972;2023-07-30T09:02:33;5.93;;;2.43;;
2011;SDS011;1009;51.436;6.972;2023-07-30T09:05:03;7.60;;;3.00;;
2011;SDS011;1009;51.436;6.972;2023-07-30T09:07:31;3.70;;;2.37;;
2011;SDS011;1009;51.436;6.972;2023-07-30T09:09:58;7.03;;;2.93;;
2011;SDS011;1009;51.436;6.972;2023-07-30T09:12:31;7.47;;;2.80;;
2011;SDS011;1009;51.436;6.972;2023-07-30T09:15:00;4.80;;;2.70;;
2011;SDS011;1009;51.436;6.972;2023-07-30T09:17:28;8.80;;;2.67;;
2011;SDS011;1009;51.436;6.972;2023-07-30T09:19:58;4.73;;;2.33;;
2011;SDS011;1009;51.436;6.972;2023-07-30T09:22:25;11.20;;;2.60;;
2011;SDS011;1009;51.436;6.972;2023-07-30T09:24:53;7.33;;;3.40;;
2011;SDS011;1009;51.436;6.972;2023-07-30T09:27:20;7.63;;;2.47;;
2011;SDS011;1009;51.436;6.972;2023-07-30T09:29:50;4.13;;;2.30;;
2011;SDS011;1009;51.436;6.972;2023-07-30T09:32:18;6.33;;;2.50;;
2011;SDS011;1009;51.436;6.972;2023-07-30T09:34:45;5.33;;;2.27;;
2011;SDS011;1009;51.436;6.972;2023-07-30T09:37:14;6.80;;;2.63;;
2011;SDS011;1009;51.436;6.972;2023-07-30T09:39:41;7.13;;;2.00;;
2011;SDS011;1009;51.436;6.972;2023-07-30T09:42:09;6.67;;;2.80;;
2011;SDS011;1009;51.436;6.972;2023-07-30T09:44:37;6.43;;;2.20;;
2011;SDS011;1009;51.436;6.972;2023-07-30T09:47:04;3.37;;;2.13;;
2011;SDS011;1009;51.436;6.972;2023-07-30T09:49:35;7.73;;;2.13;;
2011;SDS011;1009;51.436;6.972;2023-07-30T09:52:02;5.00;;;2.00;;
2011;SDS011;1009;51.436;6.972;2023-07-30T09:54:31;4.40;;;2.20;;
2011;SDS011;1009;51.436;6.972;2023-07-30T09:56:59;4.37;;;1.90;;
2011;SDS011;1009;51.436;6.972;2023-07-30T09:59:25;3.70;;;1.63;;
2011;SDS011;1009;51.436;6.972;2023-07-30T10:01:53;3.43;;;2.13;;
2011;SDS011;1009;51.436;6.972;2023-07-30T10:04:21;3.93;;;1.63;;
2011;SDS011;1009;51.436;6.972;2023-07-30T10:06:49;8.23;;;1.90;;
2011;SDS011;1009;51.436;6.972;2023-07-30T10:09:21;2.20;;;1.53;;
2011;SDS011;1009;51.436;6.972;2023-07-30T10:11:52;4.50;;;1.73;;
2011;SDS011;1009;51.436;6.972;2023-07-30T10:14:21;6.43;;;1.70;;
2011;SDS011;1009;51.436;6.972;2023-07-30T10:16:50;7.10;;;1.77;;
2011;SDS011;1009;51.436;6.972;2023-07-30T10:19:21;5.73;;;1.67;;
2011;SDS011;1009;51.436;6.972;2023-07-30T10:21:48;6.63;;;1.87;;
2011;SDS011;1009;51.436;6.972;2023-07-30T10:24:15;4.93;;;1.87;;
2011;SDS011;1009;51.436;6.972;2023-07-30T10:26:42;4.20;;;1.47;;
2011;SDS011;1009;51.436;6.972;2023-07-30T10:29:14;6.13;;;1.50;;
2011;SDS011;1009;51.436;6.972;2023-07-30T10:31:42;4.10;;;2.50;;
2011;SDS011;1009;51.436;6.972;2023-07-30T10:34:13;1.77;;;1.37;;
2011;SDS011;1009;51.436;6.972;2023-07-30T10:36:41;4.43;;;1.40;;
2011;SDS011;1009;51.436;6.972;2023-07-30T10:39:13;4.30;;;1.53;;
2011;SDS011;1009;51.436;6.972;2023-07-30T10:41:42;4.17;;;1.83;;
2011;SDS011;1009;51.436;6.972;2023-07-30T10:44:25;2.50;;;1.67;;
2011;SDS011;1009;51.436;6.972;2023-07-30T10:46:53;7.43;;;1.90;;
2011;SDS011;1009;51.436;6.972;2023-07-30T10:49:20;3.47;;;1.50;;
2011;SDS011;1009;51.436;6.972;2023-07-30T10:51:47;3.63;;;1.43;;
2011;SDS011;1009;51.436;6.972;2023-07-30T10:54:14;4.80;;;1.63;;
2011;SDS011;1009;51.436;6.972;2023-07-30T10:56:42;8.80;;;1.50;;
2011;SDS011;1009;51.436;6.972;2023-07-30T10:59:09;3.97;;;1.53;;
2011;SDS011;1009;51.436;6.972;2023-07-30T11:01:38;5.00;;;1.13;;
2011;SDS011;1009;51.436;6.972;2023-07-30T11:04:06;8.60;;;1.57;;
2011;SDS011;1009;51.436;6.972;2023-07-30T11:06:34;5.50;;;1.73;;
2011;SDS011;1009;51.436;6.972;2023-07-30T11:09:01;2.73;;;1.90;;
2011;SDS011;1009;51.436;6.972;2023-07-30T11:11:28;1.90;;;0.90;;
2011;SDS011;1009;51.436;6.972;2023-07-30T11:13:54;3.47;;;1.67;;
2011;SDS011;1009;51.436;6.972;2023-07-30T11:16:22;4.60;;;1.60;;
2011;SDS011;1009;51.436;6.972;2023-07-30T11:18:50;4.23;;;1.17;;
2011;SDS011;1009;51.436;6.972;2023-07-30T11:21:18;2.40;;;1.40;;
2011;SDS011;1009;51.436;6.972;2023-07-30T11:23:45;3.80;;;1.53;;
2011;SDS011;1009;51.436;6.972;2023-07-30T11:26:13;3.03;;;1.40;;
2011;SDS011;1009;51.436;6.972;2023-07-30T11:28:41;5.90;;;1.27;;
2011;SDS011;1009;51.436;6.972;2023-07-30T11:31:08;2.43;;;1.00;;
2011;SDS011;1009;51.436;6.972;2023-07-30T11:33:38;4.37;;;1.50;;
2011;SDS011;1009;51.436;6.972;2023-07-30T11:36:08;2.90;;;1.27;;
2011;SDS011;1009;51.436;6.972;2023-07-30T11:38:36;1.60;;;0.90;;
2011;SDS011;1009;51.436;6.972;2023-07-30T11:41:04;7.57;;;2.00;;
2011;SDS011;1009;51.436;6.972;2023-07-30T11:43:35;5.30;;;1.20;;
2011;SDS011;1009;51.436;6.972;2023-07-30T11:46:09;3.40;;;1.73;;
2011;SDS011;1009;51.436;6.972;2023-07-30T11:48:38;3.70;;;1.03;;
2011;SDS011;1009;51.436;6.972;2023-07-30T11:51:17;3.00;;;1.00;;
2011;SDS011;1009;51.436;6.972;2023-07-30T11:53:50;7.53;;;1.30;;
2011;SDS011;1009;51.436;6.972;2023-07-30T11:56:19;2.90;;;1.20;;
2011;SDS011;1009;51.436;6.972;2023-07-30T11:58:47;5.30;;;1.30;;
2011;SDS011;1009;51.436;6.972;2023-07-30T12:01:15;5.67;;;2.30;;
2011;SDS011;1009;51.436;6.972;2023-07-30T12:03:42;1.63;;;0.90;;
2011;SDS011;1009;51.436;6.972;2023-07-30T12:06:10;7.03;;;1.20;;
2011;SDS011;1009;51.436;6.972;2023-07-30T12:08:38;5.83;;;1.27;;
2011;SDS011;1009;51.436;6.972;2023-07-30T12:11:05;4.70;;;1.40;;
2011;SDS011;1009;51.436;6.972;2023-07-30T12:13:33;2.07;;;1.10;;
2011;SDS011;1009;51.436;6.972;2023-07-30T12:16:00;3.53;;;1.27;;
2011;SDS011;1009;51.436;6.972;2023-07-30T12:18:28;2.67;;;1.17;;
2011;SDS011;1009;51.436;6.972;2023-07-30T12:20:55;2.40;;;1.17;;
2011;SDS011;1009;51.436;6.972;2023-07-30T12:23:24;2.03;;;0.97;;
2011;SDS011;1009;51.436;6.972;2023-07-30T12:25:51;2.70;;;1.00;;
2011;SDS011;1009;51.436;6.972;2023-07-30T12:28:18;4.00;;;1.10;;
2011;SDS011;1009;51.436;6.972;2023-07-30T12:30:45;2.07;;;0.60;;
2011;SDS011;1009;51.436;6.972;2023-07-30T12:33:12;3.63;;;0.90;;
2011;SDS011;1009;51.436;6.972;2023-07-30T12:35:39;5.33;;;1.27;;
2011;SDS011;1009;51.436;6.972;2023-07-30T12:38:06;3.43;;;0.90;;
2011;SDS011;1009;51.436;6.972;2023-07-30T12:40:34;3.10;;;0.80;;
2011;SDS011;1009;51.436;6.972;2023-07-30T12:43:01;1.37;;;0.87;;
2011;SDS011;1009;51.436;6.972;2023-07-30T12:45:28;2.10;;;0.57;;
2011;SDS011;1009;51.436;6.972;2023-07-30T12:47:56;4.27;;;1.23;;
2011;SDS011;1009;51.436;6.972;2023-07-30T12:50:23;2.10;;;0.77;;
2011;SDS011;1009;51.436;6.972;2023-07-30T12:52:50;1.70;;;0.70;;
2011;SDS011;1009;51.436;6.972;2023-07-30T12:55:17;3.57;;;1.00;;
2011;SDS011;1009;51.436;6.972;2023-07-30T12:57:45;3.43;;;0.93;;
2011;SDS011;1009;51.436;6.972;2023-07-30T13:00:12;2.33;;;0.70;;
2011;SDS011;1009;51.436;6.972;2023-07-30T13:02:40;2.17;;;0.60;;
2011;SDS011;1009;51.436;6.972;2023-07-30T13:05:07;2.40;;;0.73;;
2011;SDS011;1009;51.436;6.972;2023-07-30T13:07:33;2.47;;;1.27;;
2011;SDS011;1009;51.436;6.972;2023-07-30T13:10:04;2.80;;;0.70;;
2011;SDS011;1009;51.436;6.972;2023-07-30T13:12:32;2.40;;;0.80;;
2011;SDS011;1009;51.436;6.972;2023-07-30T13:15:00;3.10;;;0.80;;
2011;SDS011;1009;51.436;6.972;2023-07-30T13:17:27;1.03;;;0.60;;
2011;SDS011;1009;51.436;6.972;2023-07-30T13:19:54;1.70;;;0.63;;
2011;SDS011;1009;51.436;6.972;2023-07-30T13:22:21;4.40;;;0.97;;
2011;SDS011;1009;51.436;6.972;2023-07-30T13:24:48;2.90;;;0.97;;
2011;SDS011;1009;51.436;6.972;2023-07-30T13:27:14;3.23;;;1.13;;
2011;SDS011;1009;51.436;6.972;2023-07-30T13:29:42;2.77;;;0.80;;
2011;SDS011;1009;51.436;6.972;2023-07-30T13:32:11;2.73;;;0.80;;
2011;SDS011;1009;51.436;6.972;2023-07-30T13:34:38;2.83;;;0.87;;
2011;SDS011;1009;51.436;6.972;2023-07-30T13:37:05;4.13;;;1.20;;
2011;SDS011;1009;51.436;6.972;2023-07-30T13:39:32;3.30;;;1.60;;
2011;SDS011;1009;51.436;6.972;2023-07-30T13:41:59;3.43;;;1.00;;
2011;SDS011;1009;51.436;6.972;2023-07-30T13:44:25;5.50;;;1.43;;
2011;SDS011;1009;51.436;6.972;2023-07-30T13:46:53;3.80;;;1.37;;
2011;SDS011;1009;51.436;6.972;2023-07-30T13:49:21;4.70;;;0.83;;
2011;SDS011;1009;51.436;6.972;2023-07-30T13:51:48;2.60;;;1.10;;
2011;SDS011;1009;51.436;6.972;2023-07-30T13:54:15;4.07;;;1.00;;
2011;SDS011;1009;51.436;6.972;2023-07-30T13:56:42;2.03;;;1.00;;
2011;SDS011;1009;51.436;6.972;2023-07-30T13:59:09;1.50;;;1.20;;
2011;SDS011;1009;51.436;6.972;2023-07-30T14:01:35;2.80;;;1.07;;
2011;SDS011;1009;51.436;6.972;2023-07-30T14:04:03;3.53;;;1.43;;
2011;SDS011;1009;51.436;6.972;2023-07-30T14:06:31;2.80;;;1.10;;
2011;SDS011;1009;51.436;6.972;2023-07-30T14:08:58;1.27;;;1.13;;
2011;SDS011;1009;51.436;6.972;2023-07-30T14:11:25;2.17;;;1.00;;
2011;SDS011;1009;51.436;6.972;2023-07-30T14:13:52;2.90;;;1.50;;
2011;SDS011;1009;51.436;6.972;2023-07-30T14:16:19;2.37;;;0.90;;
2011;SDS011;1009;51.436;6.972;2023-07-30T14:18:46;5.03;;;2.00;;
2011;SDS011;1009;51.436;6.972;2023-07-30T14:21:13;1.37;;;0.80;;
2011;SDS011;1009;51.436;6.972;2023-07-30T14:23:41;2.00;;;0.80;;
2011;SDS011;1009;51.436;6.972;2023-07-30T14:26:08;2.70;;;1.17;;
2011;SDS011;1009;51.436;6.972;2023-07-30T14:28:34;2.77;;;1.17;;
2011;SDS011;1009;51.436;6.972;2023-07-30T14:31:01;4.27;;;1.20;;
2011;SDS011;1009;51.436;6.972;2023-07-30T14:33:28;2.70;;;1.67;;
2011;SDS011;1009;51.436;6.972;2023-07-30T14:35:55;3.80;;;1.37;;
2011;SDS011;1009;51.436;6.972;2023-07-30T14:38:21;4.30;;;1.33;;
2011;SDS011;1009;51.436;6.972;2023-07-30T14:40:50;3.00;;;1.23;;
2011;SDS011;1009;51.436;6.972;2023-07-30T14:43:16;4.40;;;1.30;;
2011;SDS011;1009;51.436;6.972;2023-07-30T14:45:43;3.90;;;1.40;;
2011;SDS011;1009;51.436;6.972;2023-07-30T14:48:10;3.43;;;1.20;;
2011;SDS011;1009;51.436;6.972;2023-07-30T14:50:37;2.07;;;1.80;;
2011;SDS011;1009;51.436;6.972;2023-07-30T14:53:04;4.00;;;1.07;;
2011;SDS011;1009;51.436;6.972;2023-07-30T14:55:30;4.17;;;1.10;;
2011;SDS011;1009;51.436;6.972;2023-07-30T14:57:59;4.10;;;1.50;;
2011;SDS011;1009;51.436;6.972;2023-07-30T15:00:26;5.33;;;1.60;;
2011;SDS011;1009;51.436;6.972;2023-07-30T15:02:53;2.30;;;1.10;;
2011;SDS011;1009;51.436;6.972;2023-07-30T15:05:20;1.97;;;1.37;;
2011;SDS011;1009;51.436;6.972;2023-07-30T15:07:47;2.53;;;1.00;;
2011;SDS011;1009;51.436;6.972;2023-07-30T15:10:13;2.13;;;1.10;;
2011;SDS011;1009;51.436;6.972;2023-07-30T15:12:41;2.87;;;1.37;;
2011;SDS011;1009;51.436;6.972;2023-07-30T15:15:10;1.37;;;0.90;;
2011;SDS011;1009;51.436;6.972;2023-07-30T15:17:37;3.73;;;0.97;;